Time;durP1;ratioP1;P1;durP2;ratioP2;P2;SDS_P1;SDS_P2;PMS_P1;PMS_P2;Temp;Humidity;BMP_temperature;BMP_pressure;BME280_temperature;BME280_humidity;BME280_pressure;Samples;Min_cycle;Max_cycle;Signal;HPM_P1;HPM_P2
2023/07/29 00:01:54;;;;;;;6.47;4.25;;;16.20;99.90;;;;;;5025586;28;20027;-79
2023/07/29 00:04:20;;;;;;;7.78;3.85;;;16.20;99.90;;;;;;5068539;28;20066;-78
2023/07/29 00:06:46;;;;;;;5.25;4.28;;;16.20;99.90;;;;;;5058559;28;20025;-79
2023/07/29 00:09:12;;;;;;;6.70;4.03;;;16.20;99.90;;;;;;5055072;28;20400;-80
2023/07/29 00:11:38;;;;;;;4.43;3.88;;;16.20;99.90;;;;;;5036972;28;20462;-79
2023/07/29 00:14:04;;;;;;;4.25;3.85;;;16.20;99.90;;;;;;5053388;28;20067;-80
2023/07/29 00:16:30;;;;;;;7.40;4.32;;;16.20;99.90;;;;;;5052740;28;20394;-81
2023/07/29 00:18:56;;;;;;;6.22;4.25;;;16.10;99.90;;;;;;5053597;28;20022;-81
2023/07/29 00:21:22;;;;;;;4.32;3.75;;;16.10;99.90;;;;;;5056295;28;20531;-82
2023/07/29 00:23:48;;;;;;;10.32;4.05;;;16.20;99.90;;;;;;5054841;28;20414;-79
2023/07/29 00:26:13;;;;;;;9.57;4.25;;;16.20;99.90;;;;;;5053914;28;20025;-79
2023/07/29 00:28:39;;;;;;;6.47;3.72;;;16.30;99.90;;;;;;5054137;28;20015;-81
2023/07/29 00:31:05;;;;;;;8.15;4.18;;;16.30;99.90;;;;;;5053858;28;20509;-81
2023/07/29 00:33:31;;;;;;;8.30;3.92;;;16.30;99.90;;;;;;5053483;28;20062;-81
2023/07/29 00:36:01;;;;;;;5.47;3.88;;;16.30;99.90;;;;;;5056407;28;20044;-78
2023/07/29 00:38:27;;;;;;;6.43;3.58;;;16.30;99.90;;;;;;5055294;28;20021;-81
2023/07/29 00:40:53;;;;;;;6.18;3.88;;;16.20;99.90;;;;;;5035657;28;20025;-81
2023/07/29 00:43:19;;;;;;;6.90;3.42;;;16.20;99.90;;;;;;5036070;28;20475;-79
2023/07/29 00:45:46;;;;;;;9.13;4.20;;;16.30;99.90;;;;;;5054201;28;20032;-79
2023/07/29 00:48:12;;;;;;;6.78;3.72;;;16.30;99.90;;;;;;5054619;28;20024;-79
2023/07/29 00:50:41;;;;;;;6.50;4.07;;;16.30;99.90;;;;;;5053253;28;20048;-79
2023/07/29 00:53:07;;;;;;;4.95;3.60;;;16.30;99.90;;;;;;5053227;28;20025;-80
2023/07/29 00:55:33;;;;;;;4.47;3.22;;;16.30;99.90;;;;;;5040643;28;20033;-79
2023/07/29 00:58:00;;;;;;;3.95;3.30;;;16.40;99.90;;;;;;5050959;28;20431;-80
2023/07/29 01:00:26;;;;;;;5.18;4.05;;;16.40;99.90;;;;;;5040186;28;20036;-79
2023/07/29 01:02:54;;;;;;;6.53;4.07;;;16.40;99.90;;;;;;5040240;28;20028;-81
2023/07/29 01:05:20;;;;;;;4.43;3.65;;;16.40;99.90;;;;;;5049844;28;20124;-81
2023/07/29 01:07:57;;;;;;;3.90;3.47;;;16.30;99.90;;;;;;5048676;28;20028;-79
2023/07/29 01:10:55;;;;;;;7.25;3.80;;;16.20;99.90;;;;;;5034751;28;20402;-81
2023/07/29 01:13:45;;;;;;;5.57;4.07;;;16.20;99.90;;;;;;4999791;28;20083;-79
2023/07/29 01:16:17;;;;;;;5.68;3.85;;;16.10;99.90;;;;;;5034933;28;20102;-80
2023/07/29 01:18:47;;;;;;;5.82;3.70;;;16.00;99.90;;;;;;5052952;28;20089;-79
2023/07/29 01:21:14;;;;;;;4.78;4.22;;;15.90;99.90;;;;;;5054005;28;20072;-80
2023/07/29 01:23:40;;;;;;;6.88;4.10;;;15.90;99.90;;;;;;5034469;28;20079;-80
2023/07/29 01:26:06;;;;;;;6.15;4.00;;;15.80;99.90;;;;;;5052643;28;20028;-80
2023/07/29 01:28:32;;;;;;;6.30;4.20;;;15.80;99.90;;;;;;5052809;28;20025;-80
2023/07/29 01:31:20;;;;;;;5.43;4.20;;;15.70;99.90;;;;;;5034055;28;20028;-81
2023/07/29 01:34:10;;;;;;;7.03;5.05;;;15.60;99.90;;;;;;5050075;28;20025;-81
2023/07/29 01:36:40;;;;;;;4.85;4.28;;;15.50;99.90;;;;;;5051035;28;20031;-82
2023/07/29 01:39:08;;;;;;;6.72;4.78;;;15.40;99.90;;;;;;5045464;28;20039;-80
2023/07/29 01:41:35;;;;;;;6.53;4.43;;;15.40;99.90;;;;;;5044732;28;20051;-79
2023/07/29 01:44:02;;;;;;;7.32;4.10;;;15.40;99.90;;;;;;5052106;28;20027;-79
2023/07/29 01:46:28;;;;;;;6.57;4.50;;;15.30;99.90;;;;;;5042218;28;20057;-80
2023/07/29 01:48:54;;;;;;;7.10;4.63;;;15.30;99.90;;;;;;5033479;28;20067;-79
2023/07/29 01:51:20;;;;;;;6.25;3.85;;;15.30;99.90;;;;;;5032304;28;20386;-80
2023/07/29 01:53:46;;;;;;;7.25;4.43;;;15.40;99.90;;;;;;5052053;28;20024;-80
2023/07/29 01:56:12;;;;;;;7.05;4.45;;;15.40;99.90;;;;;;5038835;28;20041;-80
2023/07/29 01:58:38;;;;;;;4.88;4.30;;;15.40;99.90;;;;;;5052412;28;20476;-79
2023/07/29 02:01:04;;;;;;;8.50;5.28;;;15.40;99.90;;;;;;5033602;28;20025;-79
2023/07/29 02:03:30;;;;;;;5.13;4.32;;;15.50;99.90;;;;;;5033910;28;20029;-80
2023/07/29 02:05:56;;;;;;;6.65;4.30;;;15.50;99.90;;;;;;5052863;28;20034;-80
2023/07/29 02:08:22;;;;;;;5.85;4.75;;;15.50;99.90;;;;;;5049089;28;20026;-78
2023/07/29 02:10:48;;;;;;;5.00;4.50;;;15.60;99.90;;;;;;5054679;28;20460;-79
2023/07/29 02:13:15;;;;;;;5.53;4.73;;;15.50;99.90;;;;;;5039612;28;20415;-80
2023/07/29 02:15:41;;;;;;;7.78;4.65;;;15.60;99.90;;;;;;5052361;28;20364;-79
2023/07/29 02:18:07;;;;;;;6.60;4.30;;;15.70;99.90;;;;;;5051966;28;20078;-79
2023/07/29 02:20:33;;;;;;;4.57;3.97;;;15.70;99.90;;;;;;5034356;28;20025;-79
2023/07/29 02:22:59;;;;;;;6.53;4.47;;;15.70;99.90;;;;;;5054013;28;20402;-81
2023/07/29 02:25:25;;;;;;;5.45;4.38;;;15.80;99.90;;;;;;5056818;28;20025;-81
2023/07/29 02:27:50;;;;;;;6.63;4.43;;;15.80;99.90;;;;;;5053666;28;20021;-79
2023/07/29 02:30:16;;;;;;;6.07;4.25;;;15.80;99.90;;;;;;5022866;28;20067;-78
2023/07/29 02:32:42;;;;;;;5.32;4.55;;;15.80;99.90;;;;;;5051824;28;20028;-80
2023/07/29 02:35:08;;;;;;;5.07;4.57;;;15.70;99.90;;;;;;5051782;28;20489;-80
2023/07/29 02:37:39;;;;;;;4.88;4.22;;;15.70;99.90;;;;;;5051719;28;20086;-79
2023/07/29 02:40:05;;;;;;;7.38;4.10;;;15.70;99.90;;;;;;5057915;28;20387;-82
2023/07/29 02:42:31;;;;;;;4.90;3.70;;;15.60;99.90;;;;;;5032301;28;20530;-80
2023/07/29 02:44:58;;;;;;;5.78;3.83;;;15.60;99.90;;;;;;5036054;28;20038;-80
2023/07/29 02:47:24;;;;;;;6.20;4.45;;;15.50;99.90;;;;;;5034351;28;20425;-80
2023/07/29 02:49:50;;;;;;;4.90;4.30;;;15.40;99.90;;;;;;5056963;28;20028;-79
2023/07/29 02:52:16;;;;;;;5.88;4.70;;;15.40;99.90;;;;;;5063375;28;20014;-80
2023/07/29 02:54:42;;;;;;;5.85;4.10;;;15.30;99.90;;;;;;5061042;28;20028;-80
2023/07/29 02:57:08;;;;;;;7.05;4.93;;;15.30;99.90;;;;;;5038693;28;20116;-80
2023/07/29 02:59:34;;;;;;;4.85;4.35;;;15.30;99.90;;;;;;5057213;28;20029;-80
2023/07/29 03:01:59;;;;;;;7.50;5.10;;;15.30;99.90;;;;;;5048321;28;20100;-78
2023/07/29 03:04:25;;;;;;;7.85;5.22;;;15.30;99.90;;;;;;5070281;28;20048;-80
2023/07/29 03:06:52;;;;;;;5.45;4.65;;;15.30;99.90;;;;;;5045741;28;20547;-80
2023/07/29 03:09:18;;;;;;;5.65;4.93;;;15.40;99.90;;;;;;5053260;28;20043;-80
2023/07/29 03:11:44;;;;;;;7.90;5.55;;;15.40;99.90;;;;;;5055328;28;20478;-81
2023/07/29 03:14:10;;;;;;;5.72;5.13;;;15.40;99.90;;;;;;5037497;28;20053;-81
2023/07/29 03:16:36;;;;;;;8.32;6.07;;;15.30;99.90;;;;;;5056671;28;20115;-80
2023/07/29 03:19:02;;;;;;;9.65;6.20;;;15.30;99.90;;;;;;5038129;28;20446;-82
2023/07/29 03:21:28;;;;;;;7.85;5.78;;;15.30;99.90;;;;;;5055607;28;20022;-80
2023/07/29 03:23:54;;;;;;;7.50;5.50;;;15.40;99.90;;;;;;5036736;28;20478;-80
2023/07/29 03:26:20;;;;;;;8.00;6.00;;;15.30;99.90;;;;;;5036367;28;20078;-80
2023/07/29 03:28:46;;;;;;;9.60;6.05;;;15.30;99.90;;;;;;5054526;28;20546;-82
2023/07/29 03:31:14;;;;;;;11.02;6.78;;;15.30;99.90;;;;;;5054472;28;20029;-82
2023/07/29 03:33:39;;;;;;;9.75;6.60;;;15.30;99.90;;;;;;5056201;28;20023;-80
2023/07/29 03:36:05;;;;;;;9.15;5.40;;;15.30;99.90;;;;;;5036140;28;20120;-81
2023/07/29 03:38:32;;;;;;;7.10;6.38;;;15.30;99.90;;;;;;5054545;28;20029;-81
2023/07/29 03:40:58;;;;;;;6.47;5.75;;;15.30;99.90;;;;;;5055809;28;20039;-80
2023/07/29 03:43:24;;;;;;;8.10;6.78;;;15.30;99.90;;;;;;5046214;28;20045;-80
2023/07/29 03:45:50;;;;;;;6.95;6.20;;;15.20;99.90;;;;;;5055488;28;20070;-81
2023/07/29 03:48:16;;;;;;;10.32;6.70;;;15.20;99.90;;;;;;5055571;28;20078;-81
2023/07/29 03:50:42;;;;;;;9.68;6.45;;;15.20;99.90;;;;;;5056586;28;20075;-81
2023/07/29 03:53:09;;;;;;;7.97;7.18;;;15.20;99.90;;;;;;5053300;28;20107;-80
2023/07/29 03:55:35;;;;;;;;;;;15.20;99.90;;;;;;5054334;28;20033;-81
2023/07/29 03:58:01;;;;;;;8.88;7.47;;;15.20;99.90;;;;;;5054485;28;19904;-81
2023/07/29 04:00:27;;;;;;;9.38;6.75;;;15.20;99.90;;;;;;5054212;28;20100;-80
2023/07/29 04:02:53;;;;;;;7.60;6.40;;;15.20;99.90;;;;;;5054249;28;20021;-80
2023/07/29 04:05:19;;;;;;;8.65;7.22;;;15.20;99.90;;;;;;5054198;28;20045;-81
2023/07/29 04:07:46;;;;;;;8.88;7.10;;;15.20;99.90;;;;;;5054044;28;20029;-81
2023/07/29 04:10:11;;;;;;;7.15;6.13;;;15.20;99.90;;;;;;5060611;28;20063;-80
2023/07/29 04:12:37;;;;;;;8.23;6.25;;;15.20;99.90;;;;;;5066625;28;20029;-79
2023/07/29 04:15:04;;;;;;;9.98;6.82;;;15.20;99.90;;;;;;5060203;28;20796;-81
2023/07/29 04:17:29;;;;;;;7.97;6.97;;;15.30;99.90;;;;;;5030160;28;20387;-80
2023/07/29 04:19:55;;;;;;;5.90;5.30;;;15.30;99.90;;;;;;5053826;28;20025;-80
2023/07/29 04:22:21;;;;;;;9.02;5.97;;;15.30;99.90;;;;;;5048073;28;20021;-81
2023/07/29 04:24:47;;;;;;;9.82;6.18;;;15.30;99.90;;;;;;5053913;28;20398;-79
2023/07/29 04:27:13;;;;;;;9.88;6.85;;;15.30;99.90;;;;;;5038605;28;20021;-81
2023/07/29 04:29:39;;;;;;;10.38;6.13;;;15.40;99.90;;;;;;5053644;28;20033;-82
2023/07/29 04:32:06;;;;;;;7.68;6.75;;;15.40;99.90;;;;;;5053309;28;20020;-80
2023/07/29 04:34:32;;;;;;;8.15;6.35;;;15.40;99.90;;;;;;5048820;28;20870;-79
2023/07/29 04:36:58;;;;;;;8.77;6.18;;;15.50;99.90;;;;;;5053463;28;20116;-81
2023/07/29 04:39:24;;;;;;;6.32;5.32;;;15.60;99.90;;;;;;5053357;28;20045;-79
2023/07/29 04:41:50;;;;;;;6.88;6.05;;;15.60;99.90;;;;;;5033004;28;20068;-80
2023/07/29 04:44:16;;;;;;;6.85;5.97;;;15.60;99.90;;;;;;5023122;28;20625;-84
2023/07/29 04:46:41;;;;;;;6.57;5.78;;;15.60;99.90;;;;;;5035450;28;20064;-81
2023/07/29 04:49:07;;;;;;;6.10;5.47;;;15.60;99.90;;;;;;5052929;28;20490;-80
2023/07/29 04:51:33;;;;;;;8.40;6.68;;;15.60;99.90;;;;;;5035455;28;20021;-80
2023/07/29 04:53:59;;;;;;;6.72;5.72;;;15.60;99.90;;;;;;5050490;28;20017;-81
2023/07/29 04:56:25;;;;;;;6.20;5.60;;;15.70;99.90;;;;;;5025153;28;20029;-80
2023/07/29 04:58:51;;;;;;;5.43;4.78;;;15.70;99.90;;;;;;5052865;28;20024;-80
2023/07/29 05:01:17;;;;;;;8.60;5.28;;;15.80;99.90;;;;;;5050177;28;20036;-80
2023/07/29 05:03:43;;;;;;;8.15;6.00;;;15.80;99.90;;;;;;5044761;28;20052;-81
2023/07/29 05:06:09;;;;;;;7.13;5.47;;;15.80;99.90;;;;;;5041439;28;20031;-84
2023/07/29 05:08:35;;;;;;;8.40;5.95;;;15.90;99.90;;;;;;5057542;28;20099;-81
2023/07/29 05:11:01;;;;;;;6.13;5.40;;;15.90;99.90;;;;;;5068931;28;20025;-82
2023/07/29 05:13:27;;;;;;;7.22;5.20;;;16.00;99.90;;;;;;5073443;28;20044;-82
2023/07/29 05:15:53;;;;;;;6.68;5.45;;;16.00;99.90;;;;;;5065795;28;20114;-81
2023/07/29 05:18:19;;;;;;;6.13;5.13;;;16.00;99.90;;;;;;5065179;28;20020;-80
2023/07/29 05:20:45;;;;;;;9.30;5.47;;;16.00;99.90;;;;;;5056411;28;20032;-81
2023/07/29 05:23:11;;;;;;;5.82;5.25;;;15.90;99.90;;;;;;5068302;28;20020;-80
2023/07/29 05:25:37;;;;;;;5.47;5.00;;;15.90;99.90;;;;;;5058841;28;20028;-82
2023/07/29 05:28:03;;;;;;;5.25;3.75;;;15.90;99.90;;;;;;5055817;28;20538;-80
2023/07/29 05:30:33;;;;;;;5.22;4.45;;;15.90;99.90;;;;;;5051311;28;20063;-82
2023/07/29 05:33:00;;;;;;;4.53;4.10;;;15.90;99.90;;;;;;5057497;28;20017;-81
2023/07/29 05:35:26;;;;;;;7.70;4.72;;;15.90;99.90;;;;;;5050648;28;20036;-81
2023/07/29 05:37:52;;;;;;;5.40;4.57;;;15.90;99.90;;;;;;5064335;28;20033;-80
2023/07/29 05:40:18;;;;;;;5.60;4.22;;;15.90;99.90;;;;;;5065111;28;20025;-82
2023/07/29 05:42:45;;;;;;;7.97;4.57;;;16.10;99.90;;;;;;5043742;28;20075;-82
2023/07/29 05:45:11;;;;;;;5.30;4.17;;;16.20;99.90;;;;;;5034679;28;20017;-80
2023/07/29 05:47:37;;;;;;;5.40;3.50;;;16.30;99.90;;;;;;5053131;28;20017;-82
2023/07/29 05:50:04;;;;;;;5.97;4.38;;;16.30;99.90;;;;;;5034448;28;20021;-81
2023/07/29 05:52:33;;;;;;;4.78;3.50;;;16.30;99.90;;;;;;5050461;28;20036;-81
2023/07/29 05:54:59;;;;;;;6.07;4.22;;;16.30;99.90;;;;;;5034169;28;20028;-83
2023/07/29 05:57:25;;;;;;;5.55;4.18;;;16.30;99.90;;;;;;5034068;28;20017;-82
2023/07/29 05:59:51;;;;;;;4.45;4.03;;;16.30;99.90;;;;;;5031565;28;20438;-82
2023/07/29 06:02:17;;;;;;;7.05;3.90;;;16.30;99.90;;;;;;5055681;28;20035;-83
2023/07/29 06:04:43;;;;;;;4.80;4.30;;;16.30;99.90;;;;;;5053680;28;20059;-81
2023/07/29 06:07:09;;;;;;;4.25;3.58;;;16.40;99.90;;;;;;5050324;28;20025;-81
2023/07/29 06:09:35;;;;;;;6.68;3.42;;;16.40;99.90;;;;;;5052878;28;20104;-80
2023/07/29 06:12:01;;;;;;;6.60;3.83;;;16.40;99.90;;;;;;5040132;28;20053;-81
2023/07/29 06:14:26;;;;;;;3.78;3.25;;;16.40;99.90;;;;;;5058269;28;20037;-81
2023/07/29 06:16:52;;;;;;;7.88;3.65;;;16.40;99.90;;;;;;5070595;28;20037;-81
2023/07/29 06:19:20;;;;;;;7.22;4.28;;;16.40;99.90;;;;;;5067280;28;20025;-81
2023/07/29 06:21:46;;;;;;;;;;;16.30;99.90;;;;;;5052444;28;20050;-80
2023/07/29 06:24:11;;;;;;;4.25;3.45;;;16.20;99.90;;;;;;5058125;28;19979;-80
2023/07/29 06:26:37;;;;;;;5.50;4.28;;;16.10;99.90;;;;;;5035429;28;20053;-80
2023/07/29 06:29:03;;;;;;;5.47;4.40;;;16.10;99.90;;;;;;5030296;28;20017;-81
2023/07/29 06:31:29;;;;;;;4.60;4.00;;;16.20;99.90;;;;;;5068096;28;20368;-81
2023/07/29 06:33:55;;;;;;;6.85;3.95;;;16.20;99.90;;;;;;5039576;28;20115;-80
2023/07/29 06:36:21;;;;;;;5.30;4.13;;;16.10;99.90;;;;;;5057294;28;20037;-81
2023/07/29 06:38:47;;;;;;;6.13;3.78;;;16.10;99.90;;;;;;5060213;28;20025;-82
2023/07/29 06:41:13;;;;;;;5.80;4.70;;;16.00;99.90;;;;;;5050018;28;20064;-80
2023/07/29 06:43:39;;;;;;;5.82;4.78;;;16.00;99.90;;;;;;5052510;28;20021;-84
2023/07/29 06:46:05;;;;;;;8.27;5.18;;;16.00;99.90;;;;;;5056757;28;20017;-81
2023/07/29 06:48:31;;;;;;;7.43;4.45;;;16.10;99.90;;;;;;5057027;28;20052;-83
2023/07/29 06:51:00;;;;;;;6.95;4.75;;;16.10;99.90;;;;;;5027437;28;20041;-82
2023/07/29 06:53:27;;;;;;;6.57;4.45;;;16.00;99.90;;;;;;5057488;28;20029;-81
2023/07/29 06:55:53;;;;;;;6.67;4.70;;;16.00;99.90;;;;;;5055311;28;20036;-82
2023/07/29 06:58:19;;;;;;;7.65;4.63;;;15.90;99.90;;;;;;5037268;28;20070;-83
2023/07/29 07:00:45;;;;;;;7.00;5.57;;;15.80;99.90;;;;;;5055384;28;20478;-82
2023/07/29 07:03:11;;;;;;;10.93;5.97;;;15.80;99.90;;;;;;5054195;28;20021;-82
2023/07/29 07:05:37;;;;;;;5.55;4.85;;;15.90;99.90;;;;;;5037094;28;20051;-81
2023/07/29 07:08:03;;;;;;;7.53;4.93;;;15.90;99.90;;;;;;5053473;28;20036;-80
2023/07/29 07:10:29;;;;;;;6.95;5.68;;;16.00;99.90;;;;;;5044568;28;20537;-81
2023/07/29 07:12:55;;;;;;;6.90;5.32;;;16.00;99.90;;;;;;5049335;28;20033;-81
2023/07/29 07:15:21;;;;;;;9.95;7.72;;;16.00;99.90;;;;;;5041357;28;20030;-81
2023/07/29 07:17:46;;;;;;;12.07;6.18;;;16.00;99.90;;;;;;5058022;28;20016;-81
2023/07/29 07:20:13;;;;;;;8.13;6.53;;;16.10;99.90;;;;;;5060166;28;20067;-82
2023/07/29 07:22:39;;;;;;;9.15;6.10;;;16.10;99.90;;;;;;5038829;28;20071;-82
2023/07/29 07:25:05;;;;;;;6.78;5.97;;;16.20;99.90;;;;;;5034957;28;20037;-80
2023/07/29 07:27:31;;;;;;;9.75;6.28;;;16.10;99.90;;;;;;5028958;28;20470;-80
2023/07/29 07:29:57;;;;;;;8.95;6.60;;;16.10;99.90;;;;;;5050094;28;20034;-82
2023/07/29 07:32:23;;;;;;;10.73;6.57;;;16.00;99.90;;;;;;5033938;28;20017;-81
2023/07/29 07:34:49;;;;;;;7.47;6.53;;;16.00;99.90;;;;;;5027376;28;20040;-82
2023/07/29 07:37:15;;;;;;;6.80;6.20;;;15.90;99.90;;;;;;5056851;28;20028;-79
2023/07/29 07:39:40;;;;;;;7.25;6.05;;;15.90;99.90;;;;;;5042094;28;20084;-81
2023/07/29 07:42:06;;;;;;;7.32;6.53;;;15.90;99.90;;;;;;5029710;28;20117;-81
2023/07/29 07:44:32;;;;;;;7.45;5.40;;;15.90;99.90;;;;;;5052042;28;20025;-83
2023/07/29 07:46:58;;;;;;;5.97;5.38;;;15.90;99.90;;;;;;5054071;28;20048;-80
2023/07/29 07:49:24;;;;;;;6.50;5.85;;;16.00;99.90;;;;;;5034674;28;20025;-80
2023/07/29 07:51:50;;;;;;;5.75;5.10;;;16.10;99.90;;;;;;5047042;28;20033;-81
2023/07/29 07:54:16;;;;;;;11.32;5.70;;;16.20;99.90;;;;;;5040286;28;20021;-83
2023/07/29 07:56:43;;;;;;;5.70;5.07;;;16.20;99.90;;;;;;5050230;28;20128;-79
2023/07/29 07:59:09;;;;;;;10.38;6.97;;;16.30;99.90;;;;;;5057999;28;20012;-83
2023/07/29 08:01:39;;;;;;;6.80;5.30;;;16.30;99.90;;;;;;5053566;28;20478;-81
2023/07/29 08:04:05;;;;;;;10.15;5.65;;;16.20;99.90;;;;;;5045162;28;20510;-80
2023/07/29 08:06:31;;;;;;;6.80;5.05;;;16.10;99.90;;;;;;5058130;28;20466;-81
2023/07/29 08:08:58;;;;;;;8.27;4.90;;;16.10;99.90;;;;;;5051379;28;20030;-82
2023/07/29 08:11:24;;;;;;;7.05;5.63;;;16.00;99.90;;;;;;5048176;28;20033;-82
2023/07/29 08:13:50;;;;;;;7.45;6.32;;;16.00;99.90;;;;;;5059087;28;20024;-81
2023/07/29 08:16:16;;;;;;;10.43;6.57;;;16.00;99.90;;;;;;5060713;28;20512;-82
2023/07/29 08:18:42;;;;;;;7.10;6.40;;;15.90;99.90;;;;;;5049861;28;20474;-81
2023/07/29 08:21:08;;;;;;;11.15;7.05;;;15.90;99.90;;;;;;5057287;28;20432;-81
2023/07/29 08:23:35;;;;;;;11.68;6.85;;;15.90;99.90;;;;;;5080641;28;20013;-80
2023/07/29 08:26:05;;;;;;;8.88;7.13;;;15.90;99.90;;;;;;5053239;28;20033;-81
2023/07/29 08:28:38;;;;;;;9.77;6.97;;;16.00;99.90;;;;;;5048656;28;20031;-83
2023/07/29 08:31:06;;;;;;;10.43;6.38;;;16.00;99.90;;;;;;5049408;28;20025;-87
2023/07/29 08:33:33;;;;;;;;;;;15.90;99.90;;;;;;5050245;28;20078;-85
2023/07/29 08:36:00;;;;;;;7.88;7.07;;;15.90;99.90;;;;;;5032568;28;19936;-83
2023/07/29 08:38:26;;;;;;;10.43;7.50;;;15.70;99.90;;;;;;5029408;28;20025;-83
2023/07/29 08:41:22;;;;;;;8.43;7.47;;;15.70;99.90;;;;;;5042608;28;20486;-79
2023/07/29 08:44:15;;;;;;;8.30;7.32;;;15.70;99.90;;;;;;5051066;28;20394;-82
2023/07/29 08:46:41;;;;;;;6.82;6.13;;;15.80;99.90;;;;;;5044888;28;20035;-80
2023/07/29 08:49:08;;;;;;;7.90;5.95;;;15.80;99.90;;;;;;5054532;28;20036;-81
2023/07/29 08:51:34;;;;;;;6.30;5.27;;;15.80;99.90;;;;;;5051739;28;20025;-81
2023/07/29 08:54:01;;;;;;;8.38;5.90;;;15.70;99.90;;;;;;5054157;28;20031;-82
2023/07/29 08:56:27;;;;;;;8.40;7.05;;;15.70;99.90;;;;;;5036988;28;20088;-80
2023/07/29 08:58:54;;;;;;;8.77;5.83;;;15.70;99.90;;;;;;5042642;28;20021;-81
2023/07/29 09:01:20;;;;;;;8.37;6.87;;;15.80;99.90;;;;;;5039315;28;20027;-83
2023/07/29 09:03:46;;;;;;;7.75;5.90;;;15.80;99.90;;;;;;5045053;28;20096;-81
2023/07/29 09:06:13;;;;;;;12.27;8.45;;;16.00;99.90;;;;;;5044694;28;20109;-82
2023/07/29 09:08:39;;;;;;;7.40;6.13;;;16.00;99.90;;;;;;5041154;28;20074;-79
2023/07/29 09:11:07;;;;;;;8.00;6.85;;;16.00;99.90;;;;;;5060339;28;20025;-80
2023/07/29 09:13:33;;;;;;;10.07;8.35;;;16.00;99.90;;;;;;5070478;28;20055;-81
2023/07/29 09:15:59;;;;;;;10.98;7.25;;;16.00;99.90;;;;;;5042053;28;20084;-86
2023/07/29 09:18:28;;;;;;;8.77;7.82;;;16.00;99.90;;;;;;5044038;28;20017;-83
2023/07/29 09:20:58;;;;;;;11.88;7.50;;;16.00;99.90;;;;;;5045794;28;20032;-83
2023/07/29 09:23:24;;;;;;;7.85;7.05;;;16.00;99.90;;;;;;5030801;28;20128;-83
2023/07/29 09:25:51;;;;;;;14.02;7.32;;;16.00;99.90;;;;;;5033381;28;20478;-83
2023/07/29 09:28:17;;;;;;;8.38;6.63;;;16.10;99.90;;;;;;5038521;28;20029;-80
2023/07/29 09:30:46;;;;;;;10.75;7.63;;;16.00;99.90;;;;;;5046207;28;20087;-85
2023/07/29 09:33:13;;;;;;;9.27;6.65;;;16.10;99.90;;;;;;5043073;28;20434;-88
2023/07/29 09:35:39;;;;;;;8.80;6.55;;;16.20;99.90;;;;;;5062356;28;20025;-84
2023/07/29 09:38:06;;;;;;;8.85;6.80;;;16.20;99.90;;;;;;5064137;28;20053;-85
2023/07/29 09:40:39;;;;;;;8.40;6.97;;;16.30;99.90;;;;;;5062105;28;20032;-82
2023/07/29 09:43:06;;;;;;;10.07;7.03;;;16.30;99.90;;;;;;5025354;28;20111;-91
2023/07/29 09:45:36;;;;;;;;;;;16.40;99.90;;;;;;5034906;28;20025;-88
2023/07/29 09:48:04;;;;;;;8.55;7.15;;;16.30;99.90;;;;;;5025530;28;19948;-89
2023/07/29 09:50:31;;;;;;;8.88;7.35;;;16.20;99.90;;;;;;5046358;28;20086;-89
2023/07/29 09:53:02;;;;;;;10.50;8.50;;;16.30;99.90;;;;;;5028964;28;20501;-87
2023/07/29 09:55:28;;;;;;;8.65;7.75;;;16.30;99.90;;;;;;5004516;28;20034;-82
2023/07/29 09:58:03;;;;;;;12.63;9.63;;;16.30;99.90;;;;;;5022033;28;20057;-85
2023/07/29 10:00:31;;;;;;;9.73;7.68;;;16.30;99.90;;;;;;5013958;28;20022;-87
2023/07/29 10:02:57;;;;;;;;;;;16.30;99.90;;;;;;5017114;28;20033;-85
2023/07/29 10:05:26;;;;;;;9.87;7.20;;;16.30;99.90;;;;;;4998340;28;19940;-85
2023/07/29 10:07:52;;;;;;;8.73;7.38;;;16.30;99.90;;;;;;5004327;28;20014;-84
2023/07/29 10:10:18;;;;;;;10.52;8.57;;;16.30;99.90;;;;;;5012361;28;20034;-83
2023/07/29 10:12:44;;;;;;;9.40;8.30;;;16.40;99.90;;;;;;5013530;28;20033;-84
2023/07/29 10:15:10;;;;;;;10.25;8.38;;;16.40;99.90;;;;;;5009937;28;20053;-91
2023/07/29 10:17:38;;;;;;;10.20;9.05;;;16.50;99.90;;;;;;4999945;28;20044;-86
2023/07/29 10:20:05;;;;;;;;;;;16.50;99.90;;;;;;5000581;28;20027;-89
2023/07/29 10:22:37;;;;;;;;;;;16.50;99.90;;;;;;5016466;28;19973;-90
2023/07/29 10:25:08;;;;;;;7.00;5.93;;;16.40;99.90;;;;;;5019076;28;19971;-88
2023/07/29 10:27:59;;;;;;;9.35;6.63;;;16.40;99.90;;;;;;5022614;28;20026;-87
2023/07/29 10:30:27;;;;;;;8.75;6.53;;;16.40;99.90;;;;;;5041456;28;20043;-90
2023/07/29 10:32:54;;;;;;;7.78;5.97;;;16.20;99.90;;;;;;5035950;28;20014;-90
2023/07/29 10:35:20;;;;;;;8.82;6.05;;;16.40;99.90;;;;;;5053153;28;20099;-89
2023/07/29 10:37:50;;;;;;;6.57;5.72;;;16.40;99.90;;;;;;5032667;28;20508;-88
2023/07/29 10:40:17;;;;;;;7.13;6.43;;;16.50;99.90;;;;;;5056472;28;20029;-88
2023/07/29 10:43:13;;;;;;;8.25;6.85;;;16.40;99.90;;;;;;5038342;28;20026;-86
2023/07/29 10:45:41;;;;;;;8.95;7.10;;;16.40;99.90;;;;;;5069916;28;20021;-87
2023/07/29 10:48:33;;;;;;;8.77;7.22;;;16.30;99.90;;;;;;5066021;28;20022;-85
2023/07/29 10:51:25;;;;;;;10.13;7.72;;;16.30;99.90;;;;;;5011670;28;20063;-84
2023/07/29 10:54:03;;;;;;;9.77;8.35;;;16.40;99.90;;;;;;5032212;28;20427;-85
2023/07/29 10:56:34;;;;;;;11.77;8.82;;;16.40;99.90;;;;;;5056392;28;20040;-85
2023/07/29 10:59:20;;;;;;;11.13;9.13;;;16.50;99.90;;;;;;5044929;28;20055;-82
2023/07/29 11:02:01;;;;;;;11.60;8.35;;;16.50;99.90;;;;;;5050347;28;20116;-85
2023/07/29 11:04:30;;;;;;;14.00;10.98;;;16.50;99.90;;;;;;5055738;28;20040;-84
2023/07/29 11:07:09;;;;;;;9.18;8.23;;;16.50;99.90;;;;;;5060915;28;20035;-84
2023/07/29 11:09:48;;;;;;;13.20;10.48;;;16.60;99.90;;;;;;5035525;28;20017;-85
2023/07/29 11:12:38;;;;;;;12.10;9.93;;;16.60;99.90;;;;;;5032223;28;20025;-83
2023/07/29 11:15:14;;;;;;;8.63;7.47;;;16.70;99.90;;;;;;5045995;28;20029;-83
2023/07/29 11:17:41;;;;;;;8.25;6.82;;;16.70;99.90;;;;;;5061891;28;20029;-85
2023/07/29 11:20:08;;;;;;;11.30;8.48;;;16.70;99.90;;;;;;5072061;28;20021;-86
2023/07/29 11:22:35;;;;;;;9.07;6.70;;;16.80;99.90;;;;;;5059232;28;20520;-86
2023/07/29 11:25:01;;;;;;;10.50;6.80;;;16.80;99.90;;;;;;5074424;28;20277;-85
2023/07/29 11:27:26;;;;;;;9.15;6.13;;;16.70;99.90;;;;;;5044519;28;20056;-85
2023/07/29 11:30:08;;;;;;;8.23;7.05;;;16.70;99.90;;;;;;5074153;28;20112;-87
2023/07/29 11:32:35;;;;;;;12.30;7.57;;;16.70;99.90;;;;;;5014584;28;20029;-89
2023/07/29 11:35:07;;;;;;;13.25;8.00;;;16.80;99.90;;;;;;5067642;28;20021;-89
2023/07/29 11:37:35;;;;;;;12.65;8.65;;;16.90;99.90;;;;;;5056705;28;20029;-88
2023/07/29 11:40:03;;;;;;;7.18;5.75;;;16.90;99.90;;;;;;5083225;28;20029;-90
2023/07/29 11:42:31;;;;;;;8.48;6.43;;;16.90;99.90;;;;;;5050893;28;20025;-86
2023/07/29 11:44:58;;;;;;;10.00;6.75;;;16.90;99.90;;;;;;5039774;28;20024;-88
2023/07/29 11:47:25;;;;;;;8.00;6.82;;;16.90;99.90;;;;;;5049564;28;20040;-86
2023/07/29 11:49:51;;;;;;;10.13;7.47;;;16.80;99.90;;;;;;5047753;28;20025;-86
2023/07/29 11:52:19;;;;;;;11.27;7.72;;;16.90;99.90;;;;;;5085464;28;20043;-93
2023/07/29 11:54:49;;;;;;;12.60;8.63;;;17.10;99.90;;;;;;5053796;28;20048;-89
2023/07/29 11:57:18;;;;;;;8.80;7.85;;;17.10;99.90;;;;;;5032681;28;20041;-91
2023/07/29 11:59:45;;;;;;;8.82;7.68;;;17.20;99.90;;;;;;5022850;28;20549;-91
2023/07/29 12:02:16;;;;;;;10.38;8.27;;;17.20;99.90;;;;;;5041973;28;20041;-89
2023/07/29 12:04:44;;;;;;;8.68;7.20;;;17.20;99.90;;;;;;5043989;28;20067;-88
2023/07/29 12:07:10;;;;;;;8.25;6.82;;;17.10;99.90;;;;;;5038987;28;20026;-91
2023/07/29 12:09:37;;;;;;;7.88;5.95;;;17.10;99.90;;;;;;5043776;28;20034;-90
2023/07/29 12:12:09;;;;;;;8.60;7.22;;;17.10;99.90;;;;;;5045393;28;20045;-90
2023/07/29 12:14:35;;;;;;;9.02;6.10;;;17.00;99.90;;;;;;5033576;28;20037;-93
2023/07/29 12:17:06;;;;;;;9.53;6.43;;;17.00;99.90;;;;;;5007164;28;20042;-89
2023/07/29 12:19:34;;;;;;;11.40;7.13;;;17.10;99.90;;;;;;5029652;28;20271;-87
2023/07/29 12:22:04;;;;;;;7.47;6.68;;;17.10;99.90;;;;;;5002138;28;20030;-89
2023/07/29 12:24:31;;;;;;;8.10;6.78;;;17.20;99.90;;;;;;5009042;28;20045;-87
2023/07/29 12:26:59;;;;;;;11.07;6.70;;;17.30;99.90;;;;;;5017048;28;20025;-87
2023/07/29 12:29:26;;;;;;;10.75;6.68;;;17.40;99.90;;;;;;5008554;28;20037;-87
2023/07/29 12:32:03;;;;;;;10.48;8.43;;;17.40;99.90;;;;;;5013811;28;20073;-85
2023/07/29 12:34:30;;;;;;;8.90;6.50;;;17.40;99.90;;;;;;5040507;28;20054;-85
2023/07/29 12:36:57;;;;;;;11.43;6.55;;;17.40;99.90;;;;;;5032071;28;20061;-85
2023/07/29 12:39:23;;;;;;;;;;;17.40;99.90;;;;;;5035687;28;20061;-85
2023/07/29 12:41:51;;;;;;;12.18;7.45;;;17.50;99.90;;;;;;5031578;28;19909;-87
2023/07/29 12:44:18;;;;;;;7.97;6.95;;;17.50;99.90;;;;;;5029395;28;20033;-86
2023/07/29 12:46:44;;;;;;;8.70;7.63;;;17.50;99.90;;;;;;5015135;28;20032;-81
2023/07/29 12:49:10;;;;;;;9.70;5.55;;;17.60;99.90;;;;;;5040076;28;20049;-88
2023/07/29 12:51:38;;;;;;;7.75;6.95;;;17.70;99.90;;;;;;5079500;28;20029;-86